TimeEDT,TemperatureF,Dew PointF,Humidity,Sea Level PressureIn,VisibilityMPH,Wind Direction,Wind SpeedMPH,Gust SpeedMPH,PrecipitationIn,Events,Conditions,WindDirDegrees,DateUTC
12:53 AM,35.1,21.9,59,30.17,10.0,WSW,6.9,-,N/A,,Clear,250,2013-03-15 04:53:00
1:53 AM,33.1,25.0,72,30.15,10.0,SW,5.8,-,N/A,,Clear,230,2013-03-15 05:53:00
2:53 AM,33.1,27.0,78,30.15,10.0,SW,8.1,-,N/A,,Mostly Cloudy,220,2013-03-15 06:53:00
3:53 AM,30.9,27.0,85,30.11,10.0,SSW,5.8,-,N/A,,Partly Cloudy,200,2013-03-15 07:53:00
4:53 AM,28.9,27.0,92,30.08,10.0,SSW,3.5,-,N/A,,Clear,200,2013-03-15 08:53:00
5:53 AM,30.0,27.0,88,30.08,10.0,South,3.5,-,N/A,,Clear,170,2013-03-15 09:53:00
6:53 AM,28.0,25.0,88,30.06,9.0,South,4.6,-,N/A,,Clear,190,2013-03-15 10:53:00
7:53 AM,28.0,26.1,92,30.04,7.0,South,4.6,-,N/A,,Clear,190,2013-03-15 11:53:00
8:53 AM,30.9,28.0,89,30.03,7.0,SSW,6.9,-,N/A,,Clear,200,2013-03-15 12:53:00
9:53 AM,33.1,30.0,89,30.01,9.0,SSW,6.9,-,N/A,,Clear,210,2013-03-15 13:53:00
10:53 AM,36.0,30.0,79,30.00,10.0,WSW,4.6,-,N/A,,Clear,240,2013-03-15 14:53:00
11:53 AM,39.0,30.9,73,29.97,10.0,SW,10.4,-,N/A,,Clear,230,2013-03-15 15:53:00
12:53 PM,41.0,32.0,70,29.96,10.0,SW,6.9,-,N/A,,Clear,220,2013-03-15 16:53:00
1:53 PM,44.1,33.1,65,29.96,10.0,SW,6.9,-,N/A,,Clear,220,2013-03-15 17:53:00
2:53 PM,46.0,33.1,61,29.93,10.0,West,8.1,-,N/A,,Clear,260,2013-03-15 18:53:00
3:53 PM,48.0,33.1,56,29.90,10.0,WSW,8.1,17.3,N/A,,Clear,240,2013-03-15 19:53:00
4:53 PM,48.9,34.0,56,29.89,10.0,WSW,11.5,-,N/A,,Clear,240,2013-03-15 20:53:00
5:53 PM,48.9,34.0,56,29.90,10.0,WSW,9.2,-,N/A,,Scattered Clouds,240,2013-03-15 21:53:00
6:53 PM,50.0,35.1,57,29.89,10.0,West,4.6,-,N/A,,Overcast,260,2013-03-15 22:53:00
7:53 PM,48.0,37.0,66,29.88,10.0,Calm,Calm,-,0.00,,Overcast,0,2013-03-15 23:53:00
8:53 PM,46.9,37.0,68,29.89,10.0,West,4.6,-,N/A,,Overcast,280,2013-03-16 00:53:00
9:53 PM,45.0,37.9,76,29.88,10.0,South,5.8,-,N/A,,Overcast,180,2013-03-16 01:53:00
10:53 PM,45.0,37.9,76,29.85,10.0,North,4.6,-,N/A,,Overcast,10,2013-03-16 02:53:00
11:53 PM,45.0,37.0,74,29.81,10.0,East,5.8,-,N/A,,Overcast,100,2013-03-16 03:53:00